createdAt,value
2023-02-12T10:06:17.446Z,7.80
2023-02-12T10:08:40.209Z,5.68
2023-02-12T10:10:51.949Z,4.45
2023-02-12T10:13:04.044Z,5.45
2023-02-12T10:15:13.157Z,4.43
2023-02-12T10:17:40.165Z,4.30
2023-02-12T10:20:10.480Z,4.57
2023-02-12T10:22:55.026Z,4.55
2023-02-12T10:25:26.999Z,4.37
2023-02-12T10:27:49.474Z,3.80
2023-02-12T10:29:53.161Z,3.90
2023-02-12T10:32:04.772Z,4.50
2023-02-12T10:34:34.696Z,5.37
2023-02-12T10:36:44.485Z,5.35
2023-02-12T10:38:51.914Z,4.75
2023-02-12T10:41:01.796Z,4.37
2023-02-12T10:43:04.632Z,4.95
2023-02-12T10:45:15.380Z,5.03
2023-02-12T10:49:22.788Z,4.32
2023-02-12T10:51:46.471Z,4.55
2023-02-12T10:53:49.650Z,5.25
2023-02-12T10:56:25.992Z,4.82
2023-02-12T10:58:28.625Z,5.37
2023-02-12T11:00:37.028Z,4.43
2023-02-12T11:02:40.121Z,4.05
2023-02-12T11:04:42.725Z,4.95
2023-02-12T11:07:01.731Z,4.95
2023-02-12T11:09:05.929Z,4.35
2023-02-12T11:11:16.139Z,4.85
2023-02-12T11:13:28.956Z,4.75
2023-02-12T11:15:52.104Z,5.30
2023-02-12T11:18:09.132Z,4.80
2023-02-12T11:20:17.817Z,3.67
2023-02-12T11:22:20.712Z,4.18
2023-02-12T11:24:30.022Z,4.55
2023-02-12T11:26:33.701Z,4.77
2023-02-12T11:28:37.594Z,4.28
2023-02-12T11:31:03.918Z,4.68
2023-02-12T11:33:23.087Z,3.62
2023-02-12T11:35:28.447Z,3.37
2023-02-12T11:37:38.054Z,4.05
2023-02-12T11:39:46.220Z,5.68
2023-02-12T11:41:55.597Z,4.75
2023-02-12T11:43:59.354Z,4.20
2023-02-12T11:46:03.296Z,4.35
2023-02-12T11:48:20.997Z,4.90
2023-02-12T11:50:31.250Z,3.53
2023-02-12T11:52:38.100Z,4.62
2023-02-12T11:54:46.372Z,4.85
2023-02-12T11:56:49.654Z,4.82
2023-02-12T11:58:52.716Z,5.07
2023-02-12T12:01:14.229Z,5.20
2023-02-12T12:03:34.793Z,4.95
2023-02-12T12:05:45.800Z,4.47
2023-02-12T12:10:13.616Z,4.18
2023-02-12T12:12:23.284Z,5.75
2023-02-12T12:15:00.725Z,6.18
2023-02-12T12:17:32.604Z,5.78
2023-02-12T12:19:56.057Z,6.97
2023-02-12T12:22:14.505Z,6.68
2023-02-12T12:24:44.344Z,6.00
2023-02-12T12:27:00.658Z,4.37
2023-02-12T12:29:03.520Z,5.90
2023-02-12T12:31:12.525Z,5.72
2023-02-12T12:33:30.452Z,5.25
2023-02-12T12:35:46.125Z,5.50
2023-02-12T12:38:02.380Z,5.05
2023-02-12T12:40:17.661Z,5.65
2023-02-12T12:42:40.906Z,6.28
2023-02-12T12:44:49.781Z,5.47
2023-02-12T12:47:01.255Z,6.55
2023-02-12T12:49:32.626Z,6.18
2023-02-12T12:51:44.720Z,5.32
2023-02-12T12:54:23.186Z,6.03
2023-02-12T12:57:04.950Z,6.62
2023-02-12T12:59:36.889Z,6.32
2023-02-12T13:02:01.342Z,7.93
2023-02-12T13:04:28.887Z,5.97
2023-02-12T13:06:50.766Z,6.37
2023-02-12T13:09:50.305Z,6.37
2023-02-12T13:12:14.687Z,7.28
2023-02-12T13:15:02.595Z,6.85
2023-02-12T13:17:29.999Z,6.40
2023-02-12T13:20:07.066Z,7.87
2023-02-12T13:22:27.293Z,15.30
2023-02-12T13:24:38.142Z,15.88
2023-02-12T13:26:59.238Z,20.70
2023-02-12T13:29:13.593Z,20.80
2023-02-12T13:31:32.690Z,21.75
2023-02-12T13:34:01.645Z,23.17
2023-02-12T13:36:09.798Z,20.83
2023-02-12T13:38:41.128Z,24.33
2023-02-12T13:42:55.576Z,22.40
2023-02-12T13:45:07.755Z,22.85
2023-02-12T13:47:45.651Z,21.77
2023-02-12T13:50:25.775Z,22.60
2023-02-12T13:52:47.186Z,21.40
2023-02-12T13:54:58.297Z,22.60
2023-02-12T13:57:03.941Z,23.45
2023-02-12T13:59:33.282Z,23.30
2023-02-12T14:01:38.941Z,22.60
2023-02-12T14:03:42.806Z,22.60
2023-02-12T14:05:50.426Z,23.50
2023-02-12T14:08:05.868Z,22.58
2023-02-12T14:10:25.088Z,21.00
2023-02-12T14:12:35.609Z,24.65
2023-02-12T14:14:50.870Z,21.77
2023-02-12T14:16:54.662Z,22.13
2023-02-12T14:19:35.466Z,21.77
2023-02-12T14:21:41.488Z,22.23
2023-02-12T14:23:47.341Z,21.08
2023-02-12T14:25:58.942Z,21.85
2023-02-12T14:28:39.594Z,20.37
2023-02-12T14:30:43.381Z,21.37
2023-02-12T14:32:51.067Z,21.87
2023-02-12T14:34:54.678Z,21.48
2023-02-12T14:37:15.263Z,21.80
2023-02-12T14:39:21.652Z,19.98
2023-02-12T14:41:43.229Z,21.08
2023-02-12T14:44:27.345Z,20.40
2023-02-12T14:46:36.999Z,20.40
2023-02-12T14:48:51.032Z,20.42
2023-02-12T14:50:56.338Z,20.25
2023-02-12T14:53:05.697Z,20.40
2023-02-12T14:55:22.836Z,18.90
2023-02-12T14:57:42.666Z,18.77
2023-02-12T14:59:48.109Z,18.33
2023-02-12T15:01:52.771Z,16.52
2023-02-12T15:03:59.652Z,18.30
2023-02-12T15:09:11.796Z,16.55
2023-02-12T15:11:42.003Z,15.93
2023-02-12T15:13:49.843Z,16.95
2023-02-12T15:16:32.672Z,18.85
2023-02-12T15:18:36.639Z,15.30
2023-02-12T15:20:57.235Z,16.15
2023-02-12T15:23:00.478Z,16.13
2023-02-12T15:25:30.754Z,15.80
2023-02-12T15:27:34.271Z,17.83
2023-02-12T15:29:44.269Z,16.85
2023-02-12T15:33:59.702Z,15.70
2023-02-12T15:36:04.875Z,16.17
2023-02-12T15:38:09.110Z,16.25
2023-02-12T15:40:16.670Z,16.80
2023-02-12T15:42:40.947Z,15.57
2023-02-12T15:44:46.198Z,15.05
2023-02-12T15:46:55.913Z,16.65
2023-02-12T15:49:00.828Z,15.80
2023-02-12T15:51:31.392Z,15.98
2023-02-12T15:53:35.203Z,15.70
2023-02-12T15:55:43.105Z,15.88
2023-02-12T15:57:57.547Z,15.07
2023-02-12T16:00:39.676Z,14.43
2023-02-12T16:02:43.161Z,14.73
2023-02-12T16:04:48.028Z,15.73
2023-02-12T16:06:55.920Z,15.82
2023-02-12T16:09:27.890Z,15.75
2023-02-12T16:11:33.172Z,16.33
2023-02-12T16:13:37.948Z,15.63
2023-02-12T16:15:44.065Z,16.87
2023-02-12T16:17:51.784Z,15.77
2023-02-12T16:19:59.553Z,16.12
2023-02-12T16:22:14.899Z,16.35
2023-02-12T16:24:33.476Z,17.35
2023-02-12T16:26:37.549Z,16.92
2023-02-12T16:28:54.739Z,17.20
2023-02-12T16:31:16.501Z,16.65
2023-02-12T16:33:33.789Z,18.87
2023-02-12T16:35:37.293Z,17.70
2023-02-12T16:37:40.630Z,18.75
2023-02-12T16:40:00.606Z,17.30
2023-02-12T16:42:04.351Z,17.12
2023-02-12T16:44:26.818Z,18.87
2023-02-12T16:46:45.864Z,17.50
2023-02-12T16:48:55.270Z,18.02
2023-02-12T16:50:59.874Z,17.52
2023-02-12T16:53:09.736Z,18.17
2023-02-12T16:55:16.598Z,17.73
2023-02-12T16:57:23.622Z,17.70
2023-02-12T16:59:27.715Z,18.15
2023-02-12T17:01:37.540Z,17.73
2023-02-12T17:03:42.914Z,19.00
2023-02-12T17:05:46.527Z,24.52
2023-02-12T17:07:50.842Z,18.55
2023-02-12T17:09:54.373Z,19.70
2023-02-12T17:11:57.602Z,20.92
2023-02-12T17:14:01.751Z,23.30
2023-02-12T17:16:06.948Z,20.23
2023-02-12T17:18:14.768Z,18.98
2023-02-12T17:20:19.205Z,19.45
2023-02-12T17:22:26.810Z,19.05
2023-02-12T17:24:32.464Z,21.33
2023-02-12T17:26:37.740Z,19.02
2023-02-12T17:28:42.083Z,21.05
2023-02-12T17:30:47.383Z,21.67
2023-02-12T17:32:51.577Z,18.70
2023-02-12T17:34:55.196Z,20.15
2023-02-12T17:36:59.730Z,20.80
2023-02-12T17:39:11.326Z,22.30
2023-02-12T17:43:20.529Z,19.98
2023-02-12T17:45:24.477Z,21.50
2023-02-12T17:47:28.271Z,21.60
2023-02-12T17:49:32.889Z,23.50
2023-02-12T17:51:38.335Z,21.75
2023-02-12T17:53:44.276Z,21.75
2023-02-12T17:55:47.567Z,20.25
2023-02-12T17:57:55.979Z,21.60
2023-02-12T17:59:59.780Z,21.83
2023-02-12T18:02:06.919Z,21.87
2023-02-12T18:04:11.235Z,23.08
2023-02-12T18:06:17.165Z,22.75
2023-02-12T18:08:20.746Z,21.42
2023-02-12T18:10:24.271Z,24.25
2023-02-12T18:12:28.099Z,23.77
2023-02-12T18:14:32.738Z,22.37
2023-02-12T18:16:42.617Z,22.95
2023-02-12T18:18:46.822Z,24.12
2023-02-12T18:20:51.104Z,25.00
2023-02-12T18:22:56.106Z,23.33
2023-02-12T18:24:59.591Z,25.05
2023-02-12T18:27:03.378Z,23.48
2023-02-12T18:29:07.911Z,24.00
2023-02-12T18:31:11.658Z,24.48
2023-02-12T18:33:15.883Z,24.73
2023-02-12T18:35:20.293Z,26.70
2023-02-12T18:37:25.202Z,24.70
2023-02-12T18:39:29.776Z,23.35
2023-02-12T18:41:40.740Z,22.75
2023-02-12T18:43:44.973Z,24.67
2023-02-12T18:45:48.885Z,24.77
2023-02-12T18:47:52.547Z,24.95
2023-02-12T18:49:58.569Z,26.58
2023-02-12T18:52:03.055Z,27.70
2023-02-12T18:54:12.850Z,26.90
2023-02-12T18:56:18.974Z,26.40
2023-02-12T18:58:26.112Z,25.95
2023-02-12T19:00:34.006Z,26.02
2023-02-12T19:02:38.582Z,25.85
2023-02-12T19:04:45.430Z,24.85
2023-02-12T19:06:54.207Z,24.75
2023-02-12T19:09:00.538Z,24.37
2023-02-12T19:11:06.630Z,23.27
2023-02-12T19:13:12.204Z,26.10
2023-02-12T19:15:16.159Z,25.17
2023-02-12T19:17:21.335Z,23.05
2023-02-12T19:19:27.541Z,46.90
2023-02-12T19:21:32.016Z,44.15
2023-02-12T19:23:36.619Z,32.40
2023-02-12T19:25:46.001Z,26.90
2023-02-12T19:27:49.810Z,28.08
2023-02-12T19:29:54.639Z,26.23
2023-02-12T19:32:01.072Z,26.45
2023-02-12T19:34:18.624Z,27.67
2023-02-12T19:36:22.924Z,26.48
2023-02-12T19:38:28.258Z,51.95
2023-02-12T19:40:32.836Z,36.40
2023-02-12T19:42:57.696Z,33.22
2023-02-12T19:45:05.224Z,44.28
2023-02-12T19:47:10.219Z,41.05
2023-02-12T19:49:18.386Z,35.97
2023-02-12T19:51:25.168Z,36.15
2023-02-12T19:53:29.441Z,37.20
2023-02-12T19:55:36.487Z,36.20
2023-02-12T19:57:41.715Z,37.13
2023-02-12T19:59:47.114Z,38.42
2023-02-12T20:01:51.407Z,37.35
2023-02-12T20:03:59.914Z,40.12
2023-02-12T20:06:07.732Z,38.47
2023-02-12T20:08:11.514Z,37.28
2023-02-12T20:10:18.222Z,44.08
2023-02-12T20:12:21.965Z,37.75
2023-02-12T20:14:28.144Z,36.60
2023-02-12T20:16:37.987Z,35.58
2023-02-12T20:18:47.136Z,34.40
2023-02-12T20:20:52.509Z,34.47
2023-02-12T20:22:57.431Z,33.42
2023-02-12T20:25:02.978Z,33.85
2023-02-12T20:27:07.089Z,31.73
2023-02-12T20:29:10.372Z,31.10
2023-02-12T20:31:23.828Z,33.72
2023-02-12T20:33:27.685Z,53.55
2023-02-12T20:35:32.172Z,30.40
2023-02-12T20:37:35.881Z,31.30
2023-02-12T20:39:42.342Z,29.58
2023-02-12T20:41:46.866Z,29.83
2023-02-12T20:43:51.636Z,30.37
2023-02-12T20:48:06.744Z,31.40
2023-02-12T20:50:11.169Z,28.25
2023-02-12T20:52:14.909Z,28.25
2023-02-12T20:54:20.356Z,26.73
2023-02-12T20:56:40.360Z,27.17
2023-02-12T20:58:45.543Z,26.45
2023-02-12T21:00:49.616Z,26.60
2023-02-12T21:02:55.015Z,25.15
2023-02-12T21:04:58.858Z,25.98
2023-02-12T21:07:02.921Z,25.37
2023-02-12T21:09:09.429Z,25.83
2023-02-12T21:11:20.005Z,25.17
2023-02-12T21:15:30.263Z,21.80
2023-02-12T21:17:34.209Z,21.37
2023-02-12T21:19:38.851Z,20.85
2023-02-12T21:21:46.386Z,22.52
2023-02-12T21:23:53.269Z,30.90
2023-02-12T21:26:10.046Z,30.62
2023-02-12T21:28:14.778Z,19.65
2023-02-12T21:30:18.343Z,18.65
2023-02-12T21:32:22.139Z,18.75
2023-02-12T21:34:25.528Z,20.75
2023-02-12T21:36:31.968Z,29.30
2023-02-12T21:38:40.081Z,17.60
2023-02-12T21:40:42.804Z,15.85
2023-02-12T21:42:45.747Z,14.35
2023-02-12T21:44:49.706Z,15.05
2023-02-12T21:46:53.283Z,14.57
2023-02-12T21:48:56.679Z,14.27
2023-02-12T21:51:00.747Z,13.82
2023-02-12T21:53:03.500Z,14.43
2023-02-12T21:55:06.355Z,13.25
2023-02-12T21:57:09.624Z,14.82
2023-02-12T21:59:13.360Z,14.35
2023-02-12T22:01:19.052Z,11.32
2023-02-12T22:03:22.603Z,12.65
2023-02-12T22:05:25.125Z,11.90
2023-02-12T22:07:27.721Z,11.45
2023-02-12T22:09:30.462Z,11.35
2023-02-12T22:11:32.808Z,11.23
2023-02-12T22:13:36.287Z,11.73
2023-02-12T22:15:38.978Z,11.77
2023-02-12T22:17:41.341Z,12.30
2023-02-12T22:19:43.788Z,12.07
2023-02-12T22:21:49.088Z,12.15
2023-02-12T22:23:52.518Z,13.77
2023-02-12T22:25:54.951Z,15.38
2023-02-12T22:27:57.572Z,21.37
2023-02-12T22:30:00.840Z,12.27
2023-02-12T22:32:03.287Z,12.80
2023-02-12T22:34:09.929Z,17.12
2023-02-12T22:36:12.528Z,12.52
2023-02-12T22:38:14.860Z,10.13
2023-02-12T22:40:17.473Z,11.68
2023-02-12T22:42:19.740Z,11.68
2023-02-12T22:44:22.300Z,20.08
2023-02-12T22:46:25.123Z,13.13
2023-02-12T22:48:28.747Z,11.93
2023-02-12T22:50:31.027Z,12.30
2023-02-12T22:52:33.701Z,11.45
2023-02-12T22:54:36.016Z,12.13
2023-02-12T22:56:38.323Z,10.55
2023-02-12T22:58:41.169Z,10.45
2023-02-12T23:00:43.653Z,9.98
2023-02-12T23:02:45.933Z,10.30
2023-02-12T23:04:48.579Z,9.80
